Time;durP1;ratioP1;P1;durP2;ratioP2;P2;SDS_P1;SDS_P2;PMS_P1;PMS_P2;Temp;Humidity;BMP_temperature;BMP_pressure;BME280_temperature;BME280_humidity;BME280_pressure;Samples;Min_cycle;Max_cycle;Signal;HPM_P1;HPM_P2
2021/06/26 00:01:55;;;;;;;5.17;3.63;;;;;;;;;;5032984;28;20429;-67
2021/06/26 00:04:21;;;;;;;4.57;3.40;;;;;;;;;;5030218;28;20433;-67
2021/06/26 00:06:47;;;;;;;4.50;3.17;;;;;;;;;;5032633;28;20434;-67
2021/06/26 00:09:13;;;;;;;7.73;3.33;;;;;;;;;;5027150;28;20529;-67
2021/06/26 00:11:40;;;;;;;5.33;4.27;;;;;;;;;;5012798;28;20416;-67
2021/06/26 00:14:06;;;;;;;5.50;4.27;;;;;;;;;;5017263;28;20458;-67
2021/06/26 00:16:32;;;;;;;4.23;3.43;;;;;;;;;;5032529;28;20407;-67
2021/06/26 00:18:58;;;;;;;6.57;3.90;;;;;;;;;;5030138;28;20528;-67
2021/06/26 00:21:24;;;;;;;7.93;3.80;;;;;;;;;;5039193;28;20495;-67
2021/06/26 00:23:50;;;;;;;11.67;5.00;;;;;;;;;;5047973;28;20506;-67
2021/06/26 00:26:17;;;;;;;5.13;3.03;;;;;;;;;;5032729;28;20426;-67
2021/06/26 00:28:43;;;;;;;4.03;3.23;;;;;;;;;;5029099;28;20426;-68
2021/06/26 00:31:09;;;;;;;5.60;3.17;;;;;;;;;;5012954;28;20408;-67
2021/06/26 00:33:35;;;;;;;3.87;3.00;;;;;;;;;;5012716;28;20435;-68
2021/06/26 00:36:01;;;;;;;4.50;3.40;;;;;;;;;;5032271;28;20406;-67
2021/06/26 00:38:27;;;;;;;4.43;3.67;;;;;;;;;;5032212;28;20446;-68
2021/06/26 00:40:53;;;;;;;6.57;3.83;;;;;;;;;;5012935;28;20463;-67
2021/06/26 00:43:19;;;;;;;7.63;3.60;;;;;;;;;;5012546;28;20407;-67
2021/06/26 00:45:45;;;;;;;5.53;3.57;;;;;;;;;;5029594;28;20442;-67
2021/06/26 00:48:11;;;;;;;5.63;4.87;;;;;;;;;;5032353;28;20427;-67
2021/06/26 00:50:37;;;;;;;6.20;4.30;;;;;;;;;;5031084;28;20458;-67
2021/06/26 00:53:03;;;;;;;5.60;4.30;;;;;;;;;;5032345;28;20405;-67
2021/06/26 00:55:30;;;;;;;5.50;4.60;;;;;;;;;;5012529;28;20431;-67
2021/06/26 00:57:58;;;;;;;4.60;3.83;;;;;;;;;;5012653;28;20963;-67
2021/06/26 01:00:24;;;;;;;4.80;3.33;;;;;;;;;;5015827;28;20463;-67
2021/06/26 01:02:50;;;;;;;6.57;4.20;;;;;;;;;;5016034;28;20435;-67
2021/06/26 01:05:17;;;;;;;7.20;4.47;;;;;;;;;;5028329;28;20423;-67
2021/06/26 01:07:43;;;;;;;7.17;4.87;;;;;;;;;;5036021;28;20827;-67
2021/06/26 01:10:09;;;;;;;5.87;3.93;;;;;;;;;;5034788;28;20796;-67
2021/06/26 01:12:35;;;;;;;5.37;4.00;;;;;;;;;;5035957;28;20417;-67
2021/06/26 01:15:01;;;;;;;6.20;4.27;;;;;;;;;;5033931;28;20434;-67
2021/06/26 01:17:28;;;;;;;6.43;4.80;;;;;;;;;;5034145;28;20914;-68
2021/06/26 01:19:54;;;;;;;5.63;4.77;;;;;;;;;;5033338;28;20466;-68
2021/06/26 01:22:22;;;;;;;7.20;4.80;;;;;;;;;;5035431;28;20465;-68
2021/06/26 01:24:51;;;;;;;10.40;4.50;;;;;;;;;;5033375;28;20455;-68
2021/06/26 01:27:18;;;;;;;5.50;4.27;;;;;;;;;;5033167;28;20430;-68
2021/06/26 01:29:48;;;;;;;7.20;5.10;;;;;;;;;;5033201;28;20487;-68
2021/06/26 01:32:15;;;;;;;8.13;4.40;;;;;;;;;;5054004;28;20452;-68
2021/06/26 01:34:41;;;;;;;8.20;4.90;;;;;;;;;;5031999;28;20440;-68
2021/06/26 01:37:07;;;;;;;9.73;5.00;;;;;;;;;;5015527;28;20408;-68
2021/06/26 01:39:33;;;;;;;6.73;4.93;;;;;;;;;;5024859;28;20469;-68
2021/06/26 01:41:59;;;;;;;8.97;5.80;;;;;;;;;;5035243;28;20482;-68
2021/06/26 01:44:25;;;;;;;10.20;6.07;;;;;;;;;;5030602;28;20426;-68
2021/06/26 01:46:51;;;;;;;5.70;4.83;;;;;;;;;;5033847;28;20423;-68
2021/06/26 01:49:18;;;;;;;5.93;3.67;;;;;;;;;;5017845;28;20450;-68
2021/06/26 01:51:44;;;;;;;7.40;4.33;;;;;;;;;;5033801;28;20457;-68
2021/06/26 01:54:11;;;;;;;4.83;4.03;;;;;;;;;;5033807;28;20430;-68
2021/06/26 01:56:38;;;;;;;7.00;5.30;;;;;;;;;;5034882;28;20954;-67
2021/06/26 01:59:04;;;;;;;6.40;4.50;;;;;;;;;;5032462;28;20935;-68
2021/06/26 02:01:30;;;;;;;9.90;6.90;;;;;;;;;;5036611;28;20426;-67
2021/06/26 02:03:56;;;;;;;6.27;4.47;;;;;;;;;;5049739;28;20461;-68
2021/06/26 02:06:22;;;;;;;5.70;4.20;;;;;;;;;;5023330;28;20506;-67
2021/06/26 02:08:48;;;;;;;4.20;3.63;;;;;;;;;;5014803;28;20435;-68
2021/06/26 02:11:14;;;;;;;7.10;5.20;;;;;;;;;;5031881;28;20431;-67
2021/06/26 02:13:40;;;;;;;6.73;4.40;;;;;;;;;;5026935;28;20432;-67
2021/06/26 02:16:06;;;;;;;9.20;5.13;;;;;;;;;;5031385;28;20437;-67
2021/06/26 02:18:33;;;;;;;7.27;4.43;;;;;;;;;;5034450;28;20903;-67
2021/06/26 02:20:59;;;;;;;7.00;4.80;;;;;;;;;;5032583;28;20470;-67
2021/06/26 02:23:25;;;;;;;8.57;4.73;;;;;;;;;;5034435;28;20414;-67
2021/06/26 02:25:51;;;;;;;7.90;4.10;;;;;;;;;;5023860;28;20455;-67
2021/06/26 02:28:17;;;;;;;7.43;5.27;;;;;;;;;;5014373;28;20423;-67
2021/06/26 02:30:43;;;;;;;6.90;4.13;;;;;;;;;;5022425;28;20434;-67
2021/06/26 02:33:09;;;;;;;7.50;5.27;;;;;;;;;;5034460;28;20465;-68
2021/06/26 02:35:35;;;;;;;7.40;4.73;;;;;;;;;;5033113;28;20767;-67
2021/06/26 02:38:01;;;;;;;8.83;5.47;;;;;;;;;;5033796;28;20520;-68
2021/06/26 02:40:27;;;;;;;5.60;4.20;;;;;;;;;;5027627;28;20459;-67
2021/06/26 02:42:53;;;;;;;5.93;4.20;;;;;;;;;;5014286;28;20483;-67
2021/06/26 02:45:19;;;;;;;7.33;4.40;;;;;;;;;;5014336;28;20427;-67
2021/06/26 02:47:45;;;;;;;5.50;3.93;;;;;;;;;;5014127;28;20464;-67
2021/06/26 02:50:12;;;;;;;6.47;4.93;;;;;;;;;;5017658;28;20439;-67
2021/06/26 02:52:38;;;;;;;19.93;10.50;;;;;;;;;;5032908;28;20517;-67
2021/06/26 02:55:05;;;;;;;9.00;6.47;;;;;;;;;;5031361;28;20469;-67
2021/06/26 02:57:31;;;;;;;7.03;4.90;;;;;;;;;;5014123;28;20474;-67
2021/06/26 02:59:57;;;;;;;8.20;4.70;;;;;;;;;;5014327;28;20543;-67
2021/06/26 03:02:26;;;;;;;7.87;4.80;;;;;;;;;;5037594;28;20422;-67
2021/06/26 03:04:52;;;;;;;8.70;4.90;;;;;;;;;;5051790;28;20455;-68
2021/06/26 03:07:18;;;;;;;6.87;5.43;;;;;;;;;;5033290;28;20781;-67
2021/06/26 03:09:44;;;;;;;10.43;4.73;;;;;;;;;;5033425;28;20403;-67
2021/06/26 03:12:11;;;;;;;7.97;5.13;;;;;;;;;;5032331;28;20439;-67
2021/06/26 03:14:37;;;;;;;5.23;4.17;;;;;;;;;;5032077;28;20498;-67
2021/06/26 03:17:03;;;;;;;6.70;4.90;;;;;;;;;;5032005;28;20430;-67
2021/06/26 03:19:29;;;;;;;5.80;4.50;;;;;;;;;;5033176;28;20524;-67
2021/06/26 03:21:55;;;;;;;7.10;5.20;;;;;;;;;;5030591;28;20433;-68
2021/06/26 03:24:21;;;;;;;5.47;4.50;;;;;;;;;;5031653;28;20426;-67
2021/06/26 03:26:47;;;;;;;6.60;4.10;;;;;;;;;;5020131;28;20963;-67
2021/06/26 03:29:13;;;;;;;9.30;5.07;;;;;;;;;;5013395;28;20481;-67
2021/06/26 03:31:40;;;;;;;7.13;5.33;;;;;;;;;;5026517;28;20426;-67
2021/06/26 03:34:06;;;;;;;8.73;4.87;;;;;;;;;;5033179;28;20407;-67
2021/06/26 03:36:32;;;;;;;7.87;4.77;;;;;;;;;;5032192;28;20957;-67
2021/06/26 03:38:58;;;;;;;6.80;4.93;;;;;;;;;;5032886;28;20516;-67
2021/06/26 03:41:26;;;;;;;7.70;4.70;;;;;;;;;;5034512;28;20462;-67
2021/06/26 03:43:58;;;;;;;6.47;4.57;;;;;;;;;;5033207;28;20410;-67
2021/06/26 03:46:25;;;;;;;4.03;3.10;;;;;;;;;;5021225;28;20844;-67
2021/06/26 03:48:51;;;;;;;7.30;4.50;;;;;;;;;;5013216;28;20477;-67
2021/06/26 03:51:17;;;;;;;4.53;3.87;;;;;;;;;;5016766;28;20435;-67
2021/06/26 03:53:44;;;;;;;6.57;4.50;;;;;;;;;;5013322;28;20403;-67
2021/06/26 03:56:11;;;;;;;6.07;4.33;;;;;;;;;;5021016;28;20907;-67
2021/06/26 03:58:37;;;;;;;6.97;4.00;;;;;;;;;;5032947;28;20423;-67
2021/06/26 04:01:03;;;;;;;5.77;4.07;;;;;;;;;;5033234;28;20458;-67
2021/06/26 04:03:29;;;;;;;7.13;4.60;;;;;;;;;;5032946;28;20410;-67
2021/06/26 04:05:55;;;;;;;5.73;4.80;;;;;;;;;;5031770;28;20427;-68
2021/06/26 04:08:21;;;;;;;4.83;4.30;;;;;;;;;;5031249;28;20438;-68
2021/06/26 04:10:47;;;;;;;6.13;4.23;;;;;;;;;;5027671;28;20427;-68
2021/06/26 04:13:13;;;;;;;4.57;4.10;;;;;;;;;;5012810;28;20411;-68
2021/06/26 04:15:40;;;;;;;6.67;3.80;;;;;;;;;;5012781;28;20959;-68
2021/06/26 04:18:06;;;;;;;6.40;4.20;;;;;;;;;;5012757;28;20429;-68
2021/06/26 04:20:32;;;;;;;4.63;3.20;;;;;;;;;;5012785;28;21005;-68
2021/06/26 04:22:58;;;;;;;8.50;3.77;;;;;;;;;;5012798;28;20906;-68
2021/06/26 04:25:24;;;;;;;5.80;4.90;;;;;;;;;;5015712;28;20475;-68
2021/06/26 04:27:50;;;;;;;5.60;4.50;;;;;;;;;;5052314;28;20418;-66
2021/06/26 04:30:16;;;;;;;6.53;4.70;;;;;;;;;;5051262;28;20410;-67
2021/06/26 04:32:43;;;;;;;9.20;6.20;;;;;;;;;;5031437;28;20514;-66
2021/06/26 04:35:10;;;;;;;7.57;5.40;;;;;;;;;;5035905;28;20486;-66
2021/06/26 04:37:36;;;;;;;8.27;5.73;;;;;;;;;;5035171;28;20427;-66
2021/06/26 04:40:03;;;;;;;8.57;6.17;;;;;;;;;;5036229;28;20442;-66
2021/06/26 04:42:29;;;;;;;5.67;5.07;;;;;;;;;;5035194;28;20526;-66
2021/06/26 04:44:57;;;;;;;8.17;4.93;;;;;;;;;;5036035;28;20402;-66
2021/06/26 04:47:23;;;;;;;8.17;5.43;;;;;;;;;;5035099;28;20738;-66
2021/06/26 04:49:49;;;;;;;8.00;6.47;;;;;;;;;;5036025;28;20402;-66
2021/06/26 04:52:15;;;;;;;7.37;5.87;;;;;;;;;;5024975;28;20797;-66
2021/06/26 04:54:41;;;;;;;8.10;5.30;;;;;;;;;;5016167;28;20774;-66
2021/06/26 04:57:07;;;;;;;8.77;6.23;;;;;;;;;;5016223;28;20786;-66
2021/06/26 04:59:33;;;;;;;7.67;5.00;;;;;;;;;;5016138;28;20467;-66
2021/06/26 05:02:00;;;;;;;8.73;5.43;;;;;;;;;;5023729;28;20431;-66
2021/06/26 05:04:26;;;;;;;6.13;4.60;;;;;;;;;;5036081;28;20490;-66
2021/06/26 05:06:52;;;;;;;8.40;5.50;;;;;;;;;;5034924;28;20434;-66
2021/06/26 05:09:18;;;;;;;7.53;5.40;;;;;;;;;;5035805;28;20763;-66
2021/06/26 05:11:44;;;;;;;8.70;5.90;;;;;;;;;;5033813;28;20415;-67
2021/06/26 05:14:10;;;;;;;8.00;5.87;;;;;;;;;;5035636;28;20406;-66
2021/06/26 05:16:36;;;;;;;7.67;5.50;;;;;;;;;;5035048;28;20488;-67
2021/06/26 05:19:03;;;;;;;9.10;5.77;;;;;;;;;;5035649;28;20794;-66
2021/06/26 05:21:29;;;;;;;6.97;5.23;;;;;;;;;;5035729;28;20906;-66
2021/06/26 05:23:55;;;;;;;7.17;5.87;;;;;;;;;;5034629;28;20426;-66
2021/06/26 05:26:21;;;;;;;9.20;6.20;;;;;;;;;;5035693;28;20394;-66
2021/06/26 05:28:47;;;;;;;9.20;6.57;;;;;;;;;;5017860;28;20462;-66
2021/06/26 05:31:14;;;;;;;7.57;5.53;;;;;;;;;;5015550;28;20414;-67
2021/06/26 05:33:40;;;;;;;11.50;6.83;;;;;;;;;;5030975;28;20438;-66
2021/06/26 05:36:06;;;;;;;8.10;6.13;;;;;;;;;;5035549;28;20456;-66
2021/06/26 05:38:32;;;;;;;8.43;6.23;;;;;;;;;;5034726;28;20482;-66
2021/06/26 05:40:58;;;;;;;7.10;5.90;;;;;;;;;;5035112;28;20508;-67
2021/06/26 05:43:24;;;;;;;8.97;6.97;;;;;;;;;;5029628;28;20435;-66
2021/06/26 05:45:50;;;;;;;7.10;5.63;;;;;;;;;;5017114;28;20829;-66
2021/06/26 05:48:17;;;;;;;6.40;5.03;;;;;;;;;;5034329;28;20443;-66
2021/06/26 05:50:43;;;;;;;7.17;4.90;;;;;;;;;;5035306;28;20414;-66
2021/06/26 05:53:09;;;;;;;8.00;5.60;;;;;;;;;;5033829;28;20438;-66
2021/06/26 05:55:35;;;;;;;7.00;5.30;;;;;;;;;;5035100;28;20413;-66
2021/06/26 05:58:01;;;;;;;7.60;5.70;;;;;;;;;;5027482;28;20488;-66
2021/06/26 06:00:32;;;;;;;6.73;5.10;;;;;;;;;;5015070;28;20893;-67
2021/06/26 06:02:58;;;;;;;6.07;5.30;;;;;;;;;;5014073;28;20446;-67
2021/06/26 06:05:24;;;;;;;8.63;6.50;;;;;;;;;;5014378;28;20778;-68
2021/06/26 06:07:50;;;;;;;5.53;4.60;;;;;;;;;;5014952;28;20447;-68
2021/06/26 06:10:17;;;;;;;8.50;5.63;;;;;;;;;;5015030;28;20403;-67
2021/06/26 06:12:44;;;;;;;7.40;5.97;;;;;;;;;;5014891;28;20428;-66
2021/06/26 06:15:11;;;;;;;9.13;6.23;;;;;;;;;;5014982;28;20407;-67
2021/06/26 06:17:37;;;;;;;10.33;7.10;;;;;;;;;;5018433;28;20435;-69
2021/06/26 06:20:04;;;;;;;9.40;7.60;;;;;;;;;;5033903;28;20812;-67
2021/06/26 06:22:31;;;;;;;11.50;7.80;;;;;;;;;;5033650;28;20862;-66
2021/06/26 06:24:57;;;;;;;11.63;8.20;;;;;;;;;;5033351;28;20415;-66
2021/06/26 06:27:23;;;;;;;10.33;7.67;;;;;;;;;;5033387;28;20477;-66
2021/06/26 06:29:49;;;;;;;13.30;9.07;;;;;;;;;;5034423;28;20403;-68
2021/06/26 06:32:15;;;;;;;10.53;7.80;;;;;;;;;;5033420;28;20406;-67
2021/06/26 06:34:41;;;;;;;10.37;7.53;;;;;;;;;;5034440;28;20806;-66
2021/06/26 06:37:07;;;;;;;12.73;7.60;;;;;;;;;;5032068;28;20476;-67
2021/06/26 06:39:33;;;;;;;10.40;7.00;;;;;;;;;;5014719;28;20474;-68
2021/06/26 06:41:59;;;;;;;8.40;7.10;;;;;;;;;;5015377;28;20400;-68
2021/06/26 06:44:26;;;;;;;8.37;6.37;;;;;;;;;;5033745;28;20553;-66
2021/06/26 06:46:52;;;;;;;8.80;7.00;;;;;;;;;;5033173;28;20447;-67
2021/06/26 06:49:18;;;;;;;8.90;6.60;;;;;;;;;;5033891;28;20446;-68
2021/06/26 06:51:44;;;;;;;11.53;7.00;;;;;;;;;;5033563;28;20399;-68
2021/06/26 06:54:10;;;;;;;9.90;7.00;;;;;;;;;;5033221;28;20787;-66
2021/06/26 06:56:36;;;;;;;8.50;7.23;;;;;;;;;;5034201;28;20923;-68
2021/06/26 06:59:02;;;;;;;7.33;6.50;;;;;;;;;;5033038;28;20446;-68
2021/06/26 07:01:28;;;;;;;6.83;5.83;;;;;;;;;;5033972;28;20516;-68
2021/06/26 07:03:54;;;;;;;8.40;6.70;;;;;;;;;;5033019;28;20422;-68
2021/06/26 07:06:20;;;;;;;7.07;6.10;;;;;;;;;;5035411;28;20403;-68
2021/06/26 07:08:46;;;;;;;7.50;6.50;;;;;;;;;;5032471;28;20946;-68
2021/06/26 07:11:12;;;;;;;6.80;5.73;;;;;;;;;;5032558;28;20573;-69
2021/06/26 07:13:38;;;;;;;6.23;5.63;;;;;;;;;;5027534;28;20438;-67
2021/06/26 07:16:05;;;;;;;5.83;4.50;;;;;;;;;;5032802;28;20415;-69
2021/06/26 07:18:31;;;;;;;6.50;5.53;;;;;;;;;;5027841;28;20447;-70
2021/06/26 07:20:57;;;;;;;6.20;5.40;;;;;;;;;;5017260;28;20457;-69
2021/06/26 07:23:23;;;;;;;5.70;4.80;;;;;;;;;;5031406;28;20429;-70
2021/06/26 07:25:49;;;;;;;6.63;4.67;;;;;;;;;;5032219;28;20915;-69
2021/06/26 07:28:15;;;;;;;6.20;5.00;;;;;;;;;;5032668;28;20810;-69
2021/06/26 07:30:41;;;;;;;7.80;4.50;;;;;;;;;;5032831;28;20497;-69
2021/06/26 07:33:07;;;;;;;6.00;5.07;;;;;;;;;;5032166;28;20458;-69
2021/06/26 07:35:33;;;;;;;6.27;5.07;;;;;;;;;;5033249;28;20484;-69
2021/06/26 07:37:59;;;;;;;6.30;4.63;;;;;;;;;;5031949;28;20462;-69
2021/06/26 07:40:27;;;;;;;6.30;4.63;;;;;;;;;;5032100;28;20466;-70
2021/06/26 07:42:53;;;;;;;7.80;5.40;;;;;;;;;;5031742;28;20418;-70
2021/06/26 07:45:19;;;;;;;6.40;4.97;;;;;;;;;;5030612;28;20419;-69
2021/06/26 07:47:45;;;;;;;6.80;4.90;;;;;;;;;;5032320;28;20419;-69
2021/06/26 07:50:11;;;;;;;7.23;5.23;;;;;;;;;;5031286;28;20791;-69
2021/06/26 07:52:38;;;;;;;5.20;4.37;;;;;;;;;;5031388;28;20427;-70
2021/06/26 07:55:05;;;;;;;5.60;4.57;;;;;;;;;;5032969;28;20834;-69
2021/06/26 07:57:31;;;;;;;7.23;4.40;;;;;;;;;;5033085;28;20540;-69
2021/06/26 07:59:58;;;;;;;5.30;4.37;;;;;;;;;;5038159;28;20981;-69
2021/06/26 08:02:24;;;;;;;7.27;4.60;;;;;;;;;;5033263;28;20403;-69
2021/06/26 08:04:50;;;;;;;7.90;4.23;;;;;;;;;;5032095;28;20426;-69
2021/06/26 08:07:16;;;;;;;4.50;4.10;;;;;;;;;;5033162;28;20403;-69
2021/06/26 08:09:42;;;;;;;5.00;3.70;;;;;;;;;;5036235;28;20448;-69
2021/06/26 08:12:10;;;;;;;4.40;3.53;;;;;;;;;;5039338;28;20846;-69
2021/06/26 08:14:36;;;;;;;7.97;4.27;;;;;;;;;;5038752;28;20429;-69
2021/06/26 08:17:02;;;;;;;4.93;3.40;;;;;;;;;;5039423;28;20403;-69
2021/06/26 08:19:28;;;;;;;5.43;3.83;;;;;;;;;;5038302;28;20453;-69
2021/06/26 08:21:54;;;;;;;9.00;3.80;;;;;;;;;;5039383;28;20478;-69
2021/06/26 08:24:22;;;;;;;3.50;2.83;;;;;;;;;;5038551;28;20504;-69
2021/06/26 08:26:48;;;;;;;3.20;2.90;;;;;;;;;;5039376;28;20410;-69
2021/06/26 08:29:16;;;;;;;5.23;3.47;;;;;;;;;;5026781;28;20521;-69
2021/06/26 08:31:42;;;;;;;4.53;3.47;;;;;;;;;;5019527;28;20833;-69
2021/06/26 08:34:08;;;;;;;4.27;3.67;;;;;;;;;;5034643;28;20509;-69
2021/06/26 08:36:34;;;;;;;5.73;4.10;;;;;;;;;;5059378;28;20402;-69
2021/06/26 08:39:01;;;;;;;8.87;4.33;;;;;;;;;;5039376;28;20470;-69
2021/06/26 08:41:28;;;;;;;5.77;4.20;;;;;;;;;;5019879;28;20452;-69
2021/06/26 08:43:54;;;;;;;4.83;3.27;;;;;;;;;;5019284;28;20424;-69
2021/06/26 08:46:21;;;;;;;4.47;3.37;;;;;;;;;;5019702;28;20888;-69
2021/06/26 08:48:47;;;;;;;4.87;3.50;;;;;;;;;;5028451;28;20497;-69
2021/06/26 08:51:13;;;;;;;5.23;4.07;;;;;;;;;;5059068;28;20482;-69
2021/06/26 08:53:39;;;;;;;4.60;2.90;;;;;;;;;;5051854;28;20531;-69
2021/06/26 08:56:05;;;;;;;3.80;2.97;;;;;;;;;;5039332;28;20446;-69
2021/06/26 08:58:31;;;;;;;4.10;3.43;;;;;;;;;;5034260;28;20454;-69
2021/06/26 09:00:57;;;;;;;5.60;3.53;;;;;;;;;;5019234;28;20447;-69
2021/06/26 09:03:24;;;;;;;6.20;3.70;;;;;;;;;;5017851;28;20430;-69
2021/06/26 09:05:50;;;;;;;4.13;3.40;;;;;;;;;;5019183;28;20474;-69
2021/06/26 09:08:18;;;;;;;3.90;3.00;;;;;;;;;;5029839;28;22647;-69
2021/06/26 09:10:45;;;;;;;4.40;3.63;;;;;;;;;;5038970;28;20414;-69
2021/06/26 09:13:13;;;;;;;4.67;3.40;;;;;;;;;;5037985;28;20406;-69
2021/06/26 09:15:39;;;;;;;4.43;3.13;;;;;;;;;;5037689;28;20482;-69
2021/06/26 09:18:12;;;;;;;6.10;3.60;;;;;;;;;;5038122;28;20480;-69
2021/06/26 09:20:42;;;;;;;4.40;3.60;;;;;;;;;;5017034;28;20474;-69
2021/06/26 09:23:21;;;;;;;4.30;3.80;;;;;;;;;;5016022;28;20412;-69
2021/06/26 09:25:48;;;;;;;4.27;3.70;;;;;;;;;;5016021;28;20408;-69
2021/06/26 09:28:22;;;;;;;4.90;3.10;;;;;;;;;;5016554;28;20840;-69
2021/06/26 09:30:49;;;;;;;3.83;3.43;;;;;;;;;;5035517;28;20444;-69
2021/06/26 09:33:20;;;;;;;3.67;3.20;;;;;;;;;;5034158;28;20768;-69
2021/06/26 09:35:47;;;;;;;6.53;4.27;;;;;;;;;;5015589;28;20420;-69
2021/06/26 09:38:14;;;;;;;5.57;3.63;;;;;;;;;;5016046;28;20951;-69
2021/06/26 09:40:40;;;;;;;3.77;2.90;;;;;;;;;;5034601;28;20512;-69
2021/06/26 09:43:07;;;;;;;6.37;4.87;;;;;;;;;;5053019;28;20410;-69
2021/06/26 09:45:34;;;;;;;5.30;3.90;;;;;;;;;;5035225;28;20503;-69
2021/06/26 09:48:04;;;;;;;5.40;3.80;;;;;;;;;;5035055;28;20427;-69
2021/06/26 09:50:30;;;;;;;5.83;3.90;;;;;;;;;;5015971;28;20434;-69
2021/06/26 09:52:58;;;;;;;5.60;3.70;;;;;;;;;;5015530;28;20412;-69
2021/06/26 09:55:25;;;;;;;3.47;3.00;;;;;;;;;;5015612;28;20463;-69
2021/06/26 09:57:53;;;;;;;5.37;3.23;;;;;;;;;;5023940;28;20454;-69
2021/06/26 10:00:20;;;;;;;3.93;2.60;;;;;;;;;;5017798;28;20462;-69
2021/06/26 10:02:46;;;;;;;6.13;3.30;;;;;;;;;;5015408;28;20470;-69
2021/06/26 10:05:13;;;;;;;4.60;3.30;;;;;;;;;;5040145;28;20421;-69
2021/06/26 10:07:40;;;;;;;5.70;3.70;;;;;;;;;;5055164;28;20417;-69
2021/06/26 10:10:07;;;;;;;4.83;4.30;;;;;;;;;;5024462;28;20415;-69
2021/06/26 10:12:35;;;;;;;8.67;4.40;;;;;;;;;;5015047;28;20404;-69
2021/06/26 10:15:01;;;;;;;5.47;4.33;;;;;;;;;;5038191;28;20425;-69
2021/06/26 10:17:28;;;;;;;6.17;3.87;;;;;;;;;;5054897;28;20398;-69
2021/06/26 10:19:56;;;;;;;4.30;3.83;;;;;;;;;;5040502;28;20811;-69
2021/06/26 10:22:23;;;;;;;4.93;3.60;;;;;;;;;;5034937;28;20434;-69
2021/06/26 10:24:49;;;;;;;5.10;4.07;;;;;;;;;;5022881;28;20428;-69
2021/06/26 10:27:20;;;;;;;5.63;4.00;;;;;;;;;;5015775;28;20419;-69
2021/06/26 10:29:46;;;;;;;4.53;3.57;;;;;;;;;;5024823;28;20479;-69
2021/06/26 10:32:13;;;;;;;4.70;3.60;;;;;;;;;;5032427;28;20418;-69
2021/06/26 10:34:42;;;;;;;5.67;3.73;;;;;;;;;;5024224;28;20419;-69
2021/06/26 10:37:21;;;;;;;4.40;3.53;;;;;;;;;;5013072;28;20784;-69
2021/06/26 10:39:48;;;;;;;5.83;3.70;;;;;;;;;;5014295;28;20455;-69
2021/06/26 10:42:18;;;;;;;6.07;3.30;;;;;;;;;;5014426;28;20402;-69
2021/06/26 10:44:49;;;;;;;4.83;4.43;;;;;;;;;;5023758;28;20441;-69
2021/06/26 10:47:16;;;;;;;4.30;3.53;;;;;;;;;;5033421;28;20515;-69
2021/06/26 10:49:42;;;;;;;3.90;3.37;;;;;;;;;;5039949;28;20495;-69
2021/06/26 10:52:19;;;;;;;4.60;3.80;;;;;;;;;;5034261;28;20411;-69
2021/06/26 10:54:51;;;;;;;3.80;3.07;;;;;;;;;;5033030;28;20437;-69
2021/06/26 10:57:17;;;;;;;4.10;3.30;;;;;;;;;;5032724;28;20407;-69
2021/06/26 10:59:53;;;;;;;4.17;3.77;;;;;;;;;;5032082;28;20462;-69
2021/06/26 11:02:19;;;;;;;4.00;3.40;;;;;;;;;;5021508;28;20795;-70
2021/06/26 11:04:46;;;;;;;4.50;3.60;;;;;;;;;;5014131;28;20490;-69
2021/06/26 11:07:12;;;;;;;3.60;2.53;;;;;;;;;;5012688;28;20408;-69
2021/06/26 11:09:38;;;;;;;4.10;3.30;;;;;;;;;;5016975;28;20441;-69
2021/06/26 11:12:08;;;;;;;5.10;3.10;;;;;;;;;;5033768;28;20945;-69
2021/06/26 11:14:35;;;;;;;5.93;2.90;;;;;;;;;;5030440;28;20951;-69
2021/06/26 11:17:01;;;;;;;4.87;3.07;;;;;;;;;;5012693;28;20404;-69
2021/06/26 11:19:31;;;;;;;3.17;2.47;;;;;;;;;;5013910;28;20431;-69
2021/06/26 11:21:57;;;;;;;4.40;3.10;;;;;;;;;;5013704;28;20392;-69
2021/06/26 11:24:33;;;;;;;4.00;3.07;;;;;;;;;;5025336;28;20790;-69
2021/06/26 11:26:59;;;;;;;3.10;2.70;;;;;;;;;;5013697;28;20393;-69
2021/06/26 11:29:26;;;;;;;4.53;2.80;;;;;;;;;;5013849;28;20916;-70
2021/06/26 11:31:52;;;;;;;3.30;2.53;;;;;;;;;;5032095;28;20815;-69
2021/06/26 11:34:18;;;;;;;3.67;3.00;;;;;;;;;;5032566;28;20404;-70
2021/06/26 11:36:53;;;;;;;3.53;2.80;;;;;;;;;;5033126;28;20430;-69
2021/06/26 11:39:22;;;;;;;4.07;2.93;;;;;;;;;;5032981;28;20868;-70
2021/06/26 11:41:48;;;;;;;4.53;2.90;;;;;;;;;;5013786;28;20428;-69
2021/06/26 11:44:14;;;;;;;4.40;3.67;;;;;;;;;;5012589;28;20394;-69
2021/06/26 11:46:40;;;;;;;4.30;3.63;;;;;;;;;;5030272;28;20552;-69
2021/06/26 11:49:06;;;;;;;3.77;2.67;;;;;;;;;;5033329;28;20439;-69
2021/06/26 11:51:32;;;;;;;5.13;3.70;;;;;;;;;;5015274;28;20904;-69
2021/06/26 11:53:58;;;;;;;6.73;3.00;;;;;;;;;;5013171;28;20407;-69
2021/06/26 11:56:24;;;;;;;3.60;3.10;;;;;;;;;;5028766;28;20497;-69
2021/06/26 11:58:54;;;;;;;5.70;3.63;;;;;;;;;;5032928;28;20421;-69
2021/06/26 12:01:36;;;;;;;4.93;3.70;;;;;;;;;;5031663;28;20549;-69
2021/06/26 12:04:02;;;;;;;4.27;3.50;;;;;;;;;;5025388;28;20439;-69
2021/06/26 12:06:38;;;;;;;4.50;3.70;;;;;;;;;;5013030;28;20482;-69
2021/06/26 12:09:06;;;;;;;3.03;2.73;;;;;;;;;;5013104;28;20851;-69
2021/06/26 12:11:36;;;;;;;3.50;2.70;;;;;;;;;;5029373;28;20434;-69
2021/06/26 12:14:03;;;;;;;3.43;3.13;;;;;;;;;;5033066;28;20388;-69
2021/06/26 12:16:31;;;;;;;3.47;2.70;;;;;;;;;;5041473;28;20434;-69
2021/06/26 12:19:16;;;;;;;3.53;2.60;;;;;;;;;;5053012;28;20520;-70
2021/06/26 12:21:46;;;;;;;5.77;3.00;;;;;;;;;;5033208;28;20505;-69
2021/06/26 12:24:24;;;;;;;5.53;3.33;;;;;;;;;;5032941;28;20736;-69
2021/06/26 12:26:50;;;;;;;4.37;2.70;;;;;;;;;;5014172;28;20431;-69
2021/06/26 12:29:22;;;;;;;2.90;2.20;;;;;;;;;;5012964;28;20446;-69
2021/06/26 12:31:48;;;;;;;3.77;3.03;;;;;;;;;;5030692;28;20434;-69
2021/06/26 12:34:15;;;;;;;3.70;2.90;;;;;;;;;;5033076;28;20415;-69
2021/06/26 12:36:50;;;;;;;3.40;2.73;;;;;;;;;;5029637;28;20441;-69
2021/06/26 12:39:20;;;;;;;4.10;2.93;;;;;;;;;;5032570;28;20446;-69
2021/06/26 12:41:46;;;;;;;3.40;2.83;;;;;;;;;;5031506;28;20494;-69
2021/06/26 12:44:19;;;;;;;4.00;2.93;;;;;;;;;;5032854;28;20403;-69
2021/06/26 12:46:45;;;;;;;3.20;2.87;;;;;;;;;;5031672;28;20431;-69
2021/06/26 12:49:20;;;;;;;3.67;3.10;;;;;;;;;;5032767;28;20822;-69
2021/06/26 12:51:47;;;;;;;4.30;3.33;;;;;;;;;;5025250;28;20441;-69
2021/06/26 12:54:13;;;;;;;3.80;2.70;;;;;;;;;;5032893;28;20878;-69
2021/06/26 12:56:43;;;;;;;5.40;2.70;;;;;;;;;;5035025;28;20802;-69
2021/06/26 12:59:10;;;;;;;3.43;3.00;;;;;;;;;;5036183;28;20492;-69
2021/06/26 13:01:36;;;;;;;5.83;2.83;;;;;;;;;;5019067;28;21040;-69
2021/06/26 13:04:02;;;;;;;3.97;2.90;;;;;;;;;;5016466;28;20495;-70
2021/06/26 13:06:29;;;;;;;4.60;3.83;;;;;;;;;;5016308;28;20439;-69
2021/06/26 13:08:56;;;;;;;4.53;2.80;;;;;;;;;;5016085;28;20506;-69
2021/06/26 13:11:32;;;;;;;4.30;2.87;;;;;;;;;;5016209;28;20427;-69
2021/06/26 13:14:05;;;;;;;4.50;2.60;;;;;;;;;;5014822;28;20411;-69
2021/06/26 13:16:32;;;;;;;3.60;2.60;;;;;;;;;;5029512;28;20434;-70
2021/06/26 13:18:58;;;;;;;3.73;3.10;;;;;;;;;;5035668;28;20435;-69
2021/06/26 13:21:24;;;;;;;4.00;2.80;;;;;;;;;;5022569;28;20545;-69
2021/06/26 13:23:51;;;;;;;4.27;3.40;;;;;;;;;;5015844;28;20406;-69
2021/06/26 13:26:17;;;;;;;3.50;2.70;;;;;;;;;;5026563;28;20942;-69
2021/06/26 13:28:43;;;;;;;3.40;2.63;;;;;;;;;;5035787;28;20458;-69
2021/06/26 13:31:09;;;;;;;5.63;2.93;;;;;;;;;;5034376;28;20443;-70
2021/06/26 13:33:35;;;;;;;4.23;2.83;;;;;;;;;;5035460;28;20938;-69
2021/06/26 13:36:01;;;;;;;4.43;2.80;;;;;;;;;;5026082;28;20437;-69
2021/06/26 13:38:27;;;;;;;3.17;2.50;;;;;;;;;;5015349;28;20447;-69
2021/06/26 13:40:53;;;;;;;9.33;3.50;;;;;;;;;;5022230;28;20553;-69
2021/06/26 13:43:20;;;;;;;6.53;2.97;;;;;;;;;;5034200;28;20407;-70
2021/06/26 13:45:46;;;;;;;3.70;3.10;;;;;;;;;;5023695;28;20833;-69
2021/06/26 13:48:12;;;;;;;3.20;2.47;;;;;;;;;;5035131;28;20425;-69
2021/06/26 13:50:39;;;;;;;3.30;2.67;;;;;;;;;;5034113;28;20788;-69
2021/06/26 13:53:05;;;;;;;3.33;2.90;;;;;;;;;;5035373;28;20767;-69
2021/06/26 13:55:31;;;;;;;5.00;3.40;;;;;;;;;;5029549;28;20482;-69
2021/06/26 13:57:57;;;;;;;4.63;3.27;;;;;;;;;;5025789;28;20454;-69
2021/06/26 14:00:24;;;;;;;5.50;2.70;;;;;;;;;;5032778;28;20455;-69
2021/06/26 14:02:50;;;;;;;3.20;2.73;;;;;;;;;;5034985;28;20749;-69
2021/06/26 14:05:16;;;;;;;4.33;2.97;;;;;;;;;;5033906;28;20395;-69
2021/06/26 14:07:42;;;;;;;3.70;2.83;;;;;;;;;;5034252;28;20794;-69
2021/06/26 14:10:08;;;;;;;3.10;2.50;;;;;;;;;;5034025;28;20413;-70
2021/06/26 14:12:35;;;;;;;2.93;2.53;;;;;;;;;;5034570;28;20411;-69
2021/06/26 14:15:01;;;;;;;4.87;3.10;;;;;;;;;;5035084;28;20472;-69
2021/06/26 14:17:27;;;;;;;4.70;2.47;;;;;;;;;;5031575;28;20442;-69
2021/06/26 14:19:53;;;;;;;3.13;2.43;;;;;;;;;;5034471;28;20458;-70
2021/06/26 14:22:19;;;;;;;3.67;2.73;;;;;;;;;;5016322;28;20783;-68
2021/06/26 14:24:45;;;;;;;2.80;2.30;;;;;;;;;;5014592;28;20422;-68
2021/06/26 14:27:11;;;;;;;2.83;2.33;;;;;;;;;;5013129;28;20498;-69
2021/06/26 14:29:37;;;;;;;3.37;2.93;;;;;;;;;;5014466;28;20936;-68
2021/06/26 14:32:04;;;;;;;4.60;2.80;;;;;;;;;;5014206;28;20431;-68
2021/06/26 14:34:30;;;;;;;3.40;2.80;;;;;;;;;;5014691;28;20407;-68
2021/06/26 14:36:56;;;;;;;3.23;2.60;;;;;;;;;;5027789;28;20434;-68
2021/06/26 14:39:23;;;;;;;3.67;2.67;;;;;;;;;;5033865;28;20449;-68
2021/06/26 14:41:50;;;;;;;3.93;2.97;;;;;;;;;;5024923;28;20817;-68